createdAt,value
2023-01-29T00:01:23.209Z,22.10
2023-01-29T00:03:52.949Z,20.70
2023-01-29T00:06:19.674Z,22.50
2023-01-29T00:08:47.504Z,22.10
2023-01-29T00:11:14.239Z,23.90
2023-01-29T00:13:40.839Z,23.80
2023-01-29T00:16:07.499Z,23.30
2023-01-29T00:18:37.787Z,24.40
2023-01-29T00:21:04.530Z,24.00
2023-01-29T00:23:31.152Z,28.00
2023-01-29T00:25:59.761Z,24.10
2023-01-29T00:28:26.574Z,27.20
2023-01-29T00:30:53.212Z,24.80
2023-01-29T00:33:19.907Z,24.40
2023-01-29T00:35:46.545Z,25.00
2023-01-29T00:38:13.150Z,25.40
2023-01-29T00:40:59.110Z,26.40
2023-01-29T00:43:44.606Z,24.10
2023-01-29T00:46:11.365Z,22.40
2023-01-29T00:48:38.075Z,23.30
2023-01-29T00:51:04.875Z,22.20
2023-01-29T00:53:31.732Z,23.80
2023-01-29T00:55:58.376Z,19.30
2023-01-29T00:58:34.471Z,20.10
2023-01-29T01:01:02.354Z,25.60
2023-01-29T01:03:29.888Z,23.60
2023-01-29T01:06:03.279Z,19.80
2023-01-29T01:08:48.458Z,18.20
2023-01-29T01:11:15.122Z,21.40
2023-01-29T01:13:41.782Z,22.30
2023-01-29T01:16:16.128Z,21.80
2023-01-29T01:18:42.929Z,19.10
2023-01-29T01:21:09.579Z,18.10
2023-01-29T01:23:36.919Z,18.30
2023-01-29T01:26:08.313Z,22.10
2023-01-29T01:28:35.633Z,21.00
2023-01-29T01:31:08.358Z,19.80
2023-01-29T01:33:35.185Z,18.00
2023-01-29T01:36:02.448Z,20.50
2023-01-29T01:38:29.130Z,17.40
2023-01-29T01:40:55.756Z,17.70
2023-01-29T01:43:22.722Z,20.40
2023-01-29T01:45:50.193Z,19.40
2023-01-29T01:48:18.988Z,21.10
2023-01-29T01:50:47.375Z,21.50
2023-01-29T01:53:16.562Z,21.30
2023-01-29T01:55:49.959Z,17.80
2023-01-29T01:58:26.841Z,19.80
2023-01-29T02:00:54.448Z,19.10
2023-01-29T02:03:41.272Z,25.60
2023-01-29T02:06:27.323Z,24.80
2023-01-29T02:09:17.013Z,22.30
2023-01-29T02:11:43.658Z,25.80
2023-01-29T02:14:11.854Z,25.50
2023-01-29T02:16:38.777Z,24.70
2023-01-29T02:19:09.705Z,26.60
2023-01-29T02:21:46.219Z,23.10
2023-01-29T02:24:13.275Z,24.40
2023-01-29T02:26:58.635Z,21.10
2023-01-29T02:29:35.524Z,27.20
2023-01-29T02:32:11.344Z,26.70
2023-01-29T02:35:15.845Z,24.10
2023-01-29T02:38:08.734Z,21.20
2023-01-29T02:40:44.249Z,21.60
2023-01-29T02:43:26.084Z,22.30
2023-01-29T02:46:05.782Z,26.40
2023-01-29T02:48:44.896Z,21.00
2023-01-29T02:51:19.562Z,26.30
2023-01-29T02:53:58.904Z,26.00
2023-01-29T02:56:34.204Z,23.30
2023-01-29T02:59:13.114Z,25.20
2023-01-29T03:01:43.407Z,24.70
2023-01-29T03:04:12.336Z,20.80
2023-01-29T03:06:41.361Z,22.10
2023-01-29T03:09:11.300Z,20.00
2023-01-29T03:11:42.427Z,21.80
2023-01-29T03:14:13.459Z,23.10
2023-01-29T03:16:42.159Z,23.30
2023-01-29T03:19:12.564Z,20.00
2023-01-29T03:21:51.465Z,22.80
2023-01-29T03:24:39.222Z,16.20
2023-01-29T03:27:27.308Z,20.90
2023-01-29T03:30:14.787Z,19.00
2023-01-29T03:32:52.641Z,21.10
2023-01-29T03:35:37.008Z,20.80
2023-01-29T03:38:05.551Z,18.90
2023-01-29T03:40:38.562Z,19.80
2023-01-29T03:43:11.533Z,20.80
2023-01-29T03:45:58.433Z,20.00
2023-01-29T03:48:48.993Z,20.50
2023-01-29T03:51:24.978Z,17.70
2023-01-29T03:54:12.173Z,21.00
2023-01-29T03:56:52.386Z,22.50
2023-01-29T03:59:23.480Z,19.00
2023-01-29T04:02:27.594Z,18.70
2023-01-29T04:05:02.252Z,21.20
2023-01-29T04:07:33.613Z,21.30
2023-01-29T04:10:15.126Z,23.40
2023-01-29T04:12:44.910Z,17.90
2023-01-29T04:15:17.217Z,16.70
2023-01-29T04:17:48.184Z,18.50
2023-01-29T04:20:21.570Z,18.70
2023-01-29T04:22:49.707Z,17.10
2023-01-29T04:25:26.667Z,20.00
2023-01-29T04:27:54.557Z,18.00
2023-01-29T04:30:27.377Z,16.90
2023-01-29T04:32:59.362Z,21.30
2023-01-29T04:35:36.356Z,17.20
2023-01-29T04:38:21.357Z,19.00
2023-01-29T04:41:04.197Z,19.00
2023-01-29T04:43:49.431Z,18.30
2023-01-29T04:46:18.677Z,18.80
2023-01-29T04:49:05.570Z,16.80
2023-01-29T04:51:38.771Z,20.00
2023-01-29T04:54:26.027Z,18.80
2023-01-29T04:56:59.242Z,19.60
2023-01-29T04:59:31.129Z,18.80
2023-01-29T05:01:59.847Z,19.10
2023-01-29T05:04:27.600Z,23.10
2023-01-29T05:06:55.485Z,31.70
2023-01-29T05:09:23.451Z,25.10
2023-01-29T05:11:50.588Z,21.50
2023-01-29T05:14:18.265Z,21.10
2023-01-29T05:16:47.413Z,20.60
2023-01-29T05:19:16.261Z,16.30
2023-01-29T05:21:47.643Z,17.00
2023-01-29T05:24:16.106Z,18.00
2023-01-29T05:27:01.870Z,23.50
2023-01-29T05:29:28.606Z,17.40
2023-01-29T05:31:55.478Z,22.10
2023-01-29T05:34:22.275Z,20.40
2023-01-29T05:36:49.109Z,20.30
2023-01-29T05:39:15.783Z,18.30
2023-01-29T05:41:42.595Z,17.70
2023-01-29T05:44:13.124Z,16.80
2023-01-29T05:46:39.811Z,19.90
2023-01-29T05:49:06.493Z,17.40
2023-01-29T05:51:33.251Z,17.70
2023-01-29T05:53:59.899Z,18.30
2023-01-29T05:56:26.658Z,16.40
2023-01-29T05:58:53.837Z,19.00
2023-01-29T06:01:21.844Z,17.60
2023-01-29T06:03:48.525Z,18.50
2023-01-29T06:06:15.600Z,18.50
2023-01-29T06:08:42.845Z,16.70
2023-01-29T06:11:10.931Z,17.90
2023-01-29T06:13:37.883Z,17.70
2023-01-29T06:16:06.173Z,16.80
2023-01-29T06:18:32.998Z,16.00
2023-01-29T06:21:03.246Z,19.30
2023-01-29T06:23:30.663Z,14.90
2023-01-29T06:26:04.985Z,17.40
2023-01-29T06:28:31.931Z,16.30
2023-01-29T06:31:08.247Z,19.10
2023-01-29T06:33:43.359Z,17.20
2023-01-29T06:36:10.103Z,18.00
2023-01-29T06:38:36.729Z,16.40
2023-01-29T06:41:10.363Z,17.80
2023-01-29T06:43:37.545Z,19.60
2023-01-29T06:46:04.732Z,18.20
2023-01-29T06:48:31.400Z,18.60
2023-01-29T06:51:01.913Z,18.60
2023-01-29T06:53:28.498Z,20.70
2023-01-29T06:55:55.172Z,17.00
2023-01-29T06:58:22.108Z,16.30
2023-01-29T07:00:48.795Z,15.40
2023-01-29T07:03:15.603Z,17.30
2023-01-29T07:05:42.251Z,14.80
2023-01-29T07:08:09.965Z,13.50
2023-01-29T07:10:36.712Z,12.70
2023-01-29T07:13:03.292Z,13.60
2023-01-29T07:15:29.909Z,13.30
2023-01-29T07:18:00.948Z,11.90
2023-01-29T07:20:28.744Z,14.70
2023-01-29T07:22:56.831Z,10.40
2023-01-29T07:25:24.100Z,23.00
2023-01-29T07:27:50.794Z,23.20
2023-01-29T07:30:17.933Z,18.90
2023-01-29T07:32:44.960Z,20.50
2023-01-29T07:35:11.597Z,16.60
2023-01-29T07:37:38.206Z,14.50
2023-01-29T07:40:10.548Z,10.00
2023-01-29T07:42:42.382Z,20.20
2023-01-29T07:45:09.233Z,9.70
2023-01-29T07:47:36.063Z,10.30
2023-01-29T07:50:03.179Z,9.50
2023-01-29T07:52:30.807Z,9.90
2023-01-29T07:54:57.450Z,7.60
2023-01-29T07:57:24.106Z,6.80
2023-01-29T07:59:50.802Z,12.00
2023-01-29T08:02:18.004Z,9.60
2023-01-29T08:04:44.681Z,36.90
2023-01-29T08:07:11.284Z,23.10
2023-01-29T08:09:37.998Z,14.80
2023-01-29T08:12:04.747Z,10.80
2023-01-29T08:14:31.392Z,10.70
2023-01-29T08:16:58.080Z,7.20
2023-01-29T08:19:24.741Z,9.00
2023-01-29T08:21:51.445Z,9.10
2023-01-29T08:24:18.180Z,8.80
2023-01-29T08:26:44.918Z,8.80
2023-01-29T08:29:12.021Z,7.80
2023-01-29T08:31:40.566Z,8.60
2023-01-29T08:34:08.091Z,8.00
2023-01-29T08:36:35.315Z,7.00
2023-01-29T08:39:02.130Z,6.80
2023-01-29T08:41:28.813Z,7.30
2023-01-29T08:43:55.520Z,6.50
2023-01-29T08:46:22.503Z,8.00
2023-01-29T08:48:49.211Z,8.70
2023-01-29T08:51:15.853Z,7.30
2023-01-29T08:53:42.618Z,6.30
2023-01-29T08:56:09.230Z,7.10
2023-01-29T08:58:35.890Z,8.10
2023-01-29T09:01:06.222Z,6.60
2023-01-29T09:03:32.807Z,6.30
2023-01-29T09:05:59.426Z,7.00
2023-01-29T09:08:26.115Z,6.60
2023-01-29T09:10:52.755Z,7.10
2023-01-29T09:13:19.431Z,7.20
2023-01-29T09:15:46.113Z,7.80
2023-01-29T09:18:12.740Z,6.30
2023-01-29T09:20:39.462Z,6.30
2023-01-29T09:23:07.373Z,7.30
2023-01-29T09:25:34.092Z,8.00
2023-01-29T09:28:00.744Z,9.10
2023-01-29T09:30:27.402Z,6.60
2023-01-29T09:32:54.807Z,6.90
2023-01-29T09:35:22.349Z,8.10
2023-01-29T09:37:49.601Z,5.80
2023-01-29T09:40:21.310Z,6.40
2023-01-29T09:42:50.832Z,63.00
2023-01-29T09:45:24.695Z,10.40
2023-01-29T09:47:52.112Z,9.10
2023-01-29T09:50:40.109Z,10.30
2023-01-29T09:53:30.044Z,8.00
2023-01-29T09:56:01.352Z,6.80
2023-01-29T09:58:30.993Z,6.40
2023-01-29T10:00:57.546Z,6.70
2023-01-29T10:03:32.399Z,7.00
2023-01-29T10:05:58.988Z,6.10
2023-01-29T10:08:48.768Z,5.90
2023-01-29T10:11:34.249Z,5.40
2023-01-29T10:14:07.212Z,7.40
2023-01-29T10:16:52.915Z,6.40
2023-01-29T10:19:25.518Z,7.80
2023-01-29T10:22:09.654Z,7.80
2023-01-29T10:24:36.267Z,7.30
2023-01-29T10:27:03.969Z,7.00
2023-01-29T10:29:31.639Z,6.40
2023-01-29T10:32:05.167Z,7.50
2023-01-29T10:35:10.492Z,6.90
2023-01-29T10:37:41.420Z,6.00
2023-01-29T10:40:22.036Z,5.80
2023-01-29T10:43:06.326Z,5.60
2023-01-29T10:45:46.602Z,6.30
2023-01-29T10:48:34.197Z,5.40
2023-01-29T10:51:12.273Z,6.20
2023-01-29T10:53:57.183Z,5.40
2023-01-29T10:56:44.279Z,7.50
2023-01-29T10:59:33.569Z,5.80
2023-01-29T11:02:00.767Z,30.70
2023-01-29T11:04:28.398Z,11.50
2023-01-29T11:06:55.038Z,10.60
2023-01-29T11:09:24.850Z,8.30
2023-01-29T11:11:54.602Z,13.70
2023-01-29T11:14:30.486Z,9.50
2023-01-29T11:16:57.298Z,12.20
2023-01-29T11:19:38.108Z,7.90
2023-01-29T11:22:04.895Z,6.40
2023-01-29T11:24:31.549Z,7.20
2023-01-29T11:26:59.300Z,5.80
2023-01-29T11:29:56.960Z,7.20
2023-01-29T11:32:23.601Z,6.00
2023-01-29T11:34:57.931Z,6.80
2023-01-29T11:37:31.719Z,8.10
2023-01-29T11:39:58.510Z,7.60
2023-01-29T11:42:27.596Z,7.90
2023-01-29T11:44:54.438Z,8.40
2023-01-29T11:47:24.748Z,7.40
2023-01-29T11:50:02.253Z,6.30
2023-01-29T11:52:41.156Z,7.30
2023-01-29T11:55:13.613Z,6.60
2023-01-29T11:57:44.146Z,7.00
2023-01-29T12:00:20.745Z,7.30
2023-01-29T12:02:49.496Z,5.40
2023-01-29T12:05:20.633Z,5.90
2023-01-29T12:07:49.751Z,6.90
2023-01-29T12:10:28.905Z,7.30
2023-01-29T12:13:04.725Z,7.10
2023-01-29T12:15:31.490Z,9.60
2023-01-29T12:18:18.693Z,8.60
2023-01-29T12:20:48.840Z,7.50
2023-01-29T12:23:27.776Z,11.10
2023-01-29T12:26:30.176Z,50.50
2023-01-29T12:29:00.434Z,20.00
2023-01-29T12:31:39.352Z,9.40
2023-01-29T12:34:24.471Z,10.60
2023-01-29T12:37:11.387Z,8.50
2023-01-29T12:39:38.340Z,7.20
2023-01-29T12:42:09.739Z,6.30
2023-01-29T12:44:42.961Z,6.20
2023-01-29T12:47:17.198Z,6.20
2023-01-29T12:49:45.363Z,6.30
2023-01-29T12:52:16.249Z,7.90
2023-01-29T12:54:47.469Z,5.20
2023-01-29T12:57:26.322Z,6.50
2023-01-29T12:59:55.828Z,6.60
2023-01-29T13:03:01.582Z,7.50
2023-01-29T13:05:36.958Z,6.60
2023-01-29T13:08:07.547Z,8.20
2023-01-29T13:10:37.776Z,6.70
2023-01-29T13:13:06.643Z,7.30
2023-01-29T13:15:35.771Z,6.60
2023-01-29T13:18:22.630Z,10.20
2023-01-29T13:20:49.868Z,15.70
2023-01-29T13:23:27.261Z,10.40
2023-01-29T13:25:54.656Z,8.40
2023-01-29T13:28:23.571Z,6.70
2023-01-29T13:31:09.238Z,5.50
2023-01-29T13:33:36.512Z,5.60
2023-01-29T13:36:03.387Z,5.30
2023-01-29T13:38:35.474Z,5.50
2023-01-29T13:41:04.549Z,5.90
2023-01-29T13:43:37.140Z,7.80
2023-01-29T13:46:21.868Z,7.10
2023-01-29T13:48:52.965Z,5.50
2023-01-29T13:51:26.176Z,7.10
2023-01-29T13:53:58.858Z,5.90
2023-01-29T13:56:30.291Z,9.00
2023-01-29T13:58:57.931Z,7.10
2023-01-29T14:01:44.965Z,7.20
2023-01-29T14:04:28.503Z,8.10
2023-01-29T14:07:03.568Z,7.70
2023-01-29T14:09:39.215Z,8.30
2023-01-29T14:12:21.109Z,6.50
2023-01-29T14:14:47.778Z,7.10
2023-01-29T14:17:19.434Z,7.90
2023-01-29T14:19:50.786Z,8.50
2023-01-29T14:22:24.855Z,6.20
2023-01-29T14:24:55.652Z,5.80
2023-01-29T14:27:26.229Z,6.40
2023-01-29T14:30:00.440Z,5.80
2023-01-29T14:32:28.333Z,5.30
2023-01-29T14:35:00.270Z,7.20
2023-01-29T14:37:33.694Z,8.10
2023-01-29T14:40:12.835Z,8.80
2023-01-29T14:42:48.133Z,8.60
2023-01-29T14:45:21.928Z,8.90
2023-01-29T14:47:48.803Z,6.40
2023-01-29T14:50:32.100Z,6.80
2023-01-29T14:53:11.256Z,6.60
2023-01-29T14:55:40.792Z,5.30
2023-01-29T14:58:12.317Z,5.20
2023-01-29T15:00:41.178Z,7.40
2023-01-29T15:03:13.694Z,6.80
2023-01-29T15:05:42.483Z,5.50
2023-01-29T15:08:23.990Z,6.80
2023-01-29T15:11:13.397Z,9.20
2023-01-29T15:13:51.761Z,5.70
2023-01-29T15:16:25.976Z,8.50
2023-01-29T15:18:55.294Z,8.70
2023-01-29T15:21:22.307Z,6.80
2023-01-29T15:24:04.711Z,7.50
2023-01-29T15:26:31.459Z,7.00
2023-01-29T15:29:04.128Z,6.90
2023-01-29T15:31:32.424Z,7.60
2023-01-29T15:34:03.283Z,9.10
2023-01-29T15:36:32.026Z,12.70
2023-01-29T15:39:17.712Z,10.60
2023-01-29T15:41:44.833Z,8.20
2023-01-29T15:44:19.148Z,8.60
2023-01-29T15:46:48.969Z,8.50
2023-01-29T15:49:32.513Z,7.60
2023-01-29T15:52:00.987Z,7.60
2023-01-29T15:54:31.496Z,6.00
2023-01-29T15:57:01.185Z,8.50
2023-01-29T15:59:34.748Z,7.50
2023-01-29T16:02:21.843Z,8.70
2023-01-29T16:04:48.989Z,8.00
2023-01-29T16:07:16.699Z,9.90
2023-01-29T16:09:43.712Z,10.50
2023-01-29T16:12:14.278Z,15.20
2023-01-29T16:14:42.493Z,12.40
2023-01-29T16:17:27.498Z,12.40
2023-01-29T16:19:59.085Z,19.10
2023-01-29T16:22:35.666Z,12.80
2023-01-29T16:25:07.560Z,11.10
2023-01-29T16:27:35.483Z,13.10
2023-01-29T16:30:04.639Z,14.30
2023-01-29T16:32:32.089Z,12.20
2023-01-29T16:35:00.009Z,10.40
2023-01-29T16:37:31.811Z,9.20
2023-01-29T16:39:58.782Z,10.40
2023-01-29T16:42:33.726Z,12.00
2023-01-29T16:45:01.575Z,8.40
2023-01-29T16:47:31.094Z,10.30
2023-01-29T16:49:59.996Z,11.40
2023-01-29T16:52:32.277Z,11.90
2023-01-29T16:55:16.592Z,8.40
2023-01-29T16:57:45.716Z,11.50
2023-01-29T17:00:21.837Z,10.10
2023-01-29T17:02:53.887Z,8.40
2023-01-29T17:05:23.260Z,11.70
2023-01-29T17:07:51.061Z,12.70
2023-01-29T17:10:20.280Z,11.20
2023-01-29T17:12:55.837Z,13.00
2023-01-29T17:15:44.377Z,12.50
2023-01-29T17:18:19.832Z,10.90
2023-01-29T17:20:47.926Z,11.60
2023-01-29T17:23:17.434Z,15.80
2023-01-29T17:25:45.863Z,13.40
2023-01-29T17:28:15.401Z,28.20
2023-01-29T17:30:50.631Z,19.50
2023-01-29T17:33:27.106Z,19.10
2023-01-29T17:35:56.309Z,20.20
2023-01-29T17:38:26.626Z,11.80
2023-01-29T17:40:54.645Z,8.60
2023-01-29T17:43:21.903Z,8.90
2023-01-29T17:45:49.714Z,7.70
2023-01-29T17:48:23.538Z,9.00
2023-01-29T17:50:54.052Z,10.40
2023-01-29T17:53:26.534Z,10.70
2023-01-29T17:55:58.590Z,12.40
2023-01-29T17:58:31.743Z,9.40
2023-01-29T18:01:00.002Z,9.90
2023-01-29T18:03:27.916Z,16.90
2023-01-29T18:05:55.789Z,11.90
2023-01-29T18:08:30.001Z,8.50
2023-01-29T18:10:57.895Z,9.30
2023-01-29T18:13:25.739Z,9.00
2023-01-29T18:15:53.863Z,11.60
2023-01-29T18:18:22.895Z,11.10
2023-01-29T18:20:59.979Z,13.00
2023-01-29T18:23:30.802Z,11.70
2023-01-29T18:25:58.763Z,9.60
2023-01-29T18:28:26.208Z,8.90
2023-01-29T18:30:54.218Z,6.60
2023-01-29T18:33:21.430Z,7.30
2023-01-29T18:35:49.152Z,9.10
2023-01-29T18:38:18.529Z,8.30
2023-01-29T18:40:46.768Z,9.40
2023-01-29T18:43:15.200Z,8.20
2023-01-29T18:45:42.952Z,8.90
2023-01-29T18:48:11.224Z,9.60
2023-01-29T18:50:40.550Z,10.00
2023-01-29T18:53:07.918Z,11.50
2023-01-29T18:55:37.221Z,17.80
2023-01-29T18:58:33.638Z,11.70
2023-01-29T19:00:55.431Z,12.70
2023-01-29T19:03:24.028Z,20.30
2023-01-29T19:05:52.613Z,9.20
2023-01-29T19:08:21.532Z,11.60
2023-01-29T19:10:49.414Z,12.60
2023-01-29T19:13:18.969Z,12.50
2023-01-29T19:15:48.961Z,12.10
2023-01-29T19:18:17.161Z,8.90
2023-01-29T19:20:45.249Z,10.20
2023-01-29T19:23:13.212Z,9.40
2023-01-29T19:25:41.191Z,8.90
2023-01-29T19:28:09.199Z,9.30
2023-01-29T19:30:37.340Z,8.20
2023-01-29T19:33:05.178Z,11.50
2023-01-29T19:35:34.859Z,11.40
2023-01-29T19:38:03.617Z,6.20
2023-01-29T19:40:32.435Z,8.30
2023-01-29T19:43:01.707Z,7.80
2023-01-29T19:45:49.165Z,12.70
2023-01-29T19:48:22.502Z,15.30
2023-01-29T19:50:54.361Z,12.70
2023-01-29T19:53:24.443Z,11.70
2023-01-29T19:55:59.653Z,9.20
2023-01-29T19:58:27.613Z,10.80
2023-01-29T20:00:59.772Z,10.40
2023-01-29T20:03:30.579Z,9.80
2023-01-29T20:06:07.449Z,10.80
2023-01-29T20:08:36.749Z,10.60
2023-01-29T20:11:06.876Z,10.60
2023-01-29T20:13:34.737Z,9.20
2023-01-29T20:16:04.862Z,8.30
2023-01-29T20:18:34.565Z,8.90
2023-01-29T20:21:07.080Z,10.00
2023-01-29T20:23:38.151Z,9.70
2023-01-29T20:26:10.110Z,10.70
2023-01-29T20:28:39.279Z,10.90
2023-01-29T20:31:08.666Z,11.70
2023-01-29T20:33:39.692Z,9.80
2023-01-29T20:36:10.128Z,12.90
2023-01-29T20:38:39.355Z,14.20
2023-01-29T20:41:08.116Z,15.50
2023-01-29T20:43:38.148Z,13.70
2023-01-29T20:46:05.826Z,15.80
2023-01-29T20:48:34.064Z,12.90
2023-01-29T20:51:10.628Z,12.00
2023-01-29T20:53:39.313Z,9.70
2023-01-29T20:56:08.718Z,7.60
2023-01-29T20:58:38.931Z,11.00
2023-01-29T21:01:13.597Z,13.20
2023-01-29T21:03:41.428Z,17.60
2023-01-29T21:06:09.767Z,18.90
2023-01-29T21:08:38.275Z,18.70
2023-01-29T21:11:06.498Z,18.80
2023-01-29T21:13:36.171Z,14.70
2023-01-29T21:16:03.771Z,15.40
2023-01-29T21:18:34.150Z,15.20
2023-01-29T21:21:03.657Z,14.10
2023-01-29T21:23:31.333Z,15.30
2023-01-29T21:26:02.855Z,13.60
2023-01-29T21:28:30.454Z,14.20
2023-01-29T21:31:05.155Z,11.10
2023-01-29T21:33:32.212Z,10.60
2023-01-29T21:35:59.783Z,11.10
2023-01-29T21:38:26.603Z,11.40
2023-01-29T21:40:59.325Z,10.60
2023-01-29T21:43:26.183Z,12.30
2023-01-29T21:46:00.598Z,12.10
2023-01-29T21:48:27.632Z,10.70
2023-01-29T21:50:54.470Z,15.10
2023-01-29T21:53:21.143Z,11.80
2023-01-29T21:55:47.891Z,13.80
2023-01-29T21:58:14.972Z,15.60
2023-01-29T22:00:41.811Z,15.20
2023-01-29T22:03:08.651Z,14.40
2023-01-29T22:05:35.469Z,13.70
2023-01-29T22:08:02.745Z,10.10
2023-01-29T22:10:30.747Z,9.70
2023-01-29T22:12:59.316Z,8.70
2023-01-29T22:15:26.060Z,7.90
2023-01-29T22:17:52.776Z,6.20
2023-01-29T22:20:19.702Z,7.50
2023-01-29T22:22:46.667Z,7.20
2023-01-29T22:25:13.521Z,8.40
2023-01-29T22:27:40.358Z,7.50
2023-01-29T22:30:08.075Z,10.60
2023-01-29T22:32:35.144Z,8.70
2023-01-29T22:35:02.108Z,7.80
2023-01-29T22:37:30.343Z,8.00
2023-01-29T22:39:57.011Z,9.00
2023-01-29T22:42:23.641Z,8.20
2023-01-29T22:44:50.344Z,5.90
2023-01-29T22:47:17.030Z,8.00
2023-01-29T22:49:46.464Z,7.70
2023-01-29T22:52:13.893Z,7.90
2023-01-29T22:54:41.904Z,6.60
2023-01-29T22:57:10.742Z,7.70
2023-01-29T22:59:37.567Z,9.40
2023-01-29T23:02:04.800Z,8.70
2023-01-29T23:04:31.540Z,8.40
2023-01-29T23:06:58.239Z,9.40
2023-01-29T23:09:25.001Z,10.40
2023-01-29T23:11:51.630Z,10.10
2023-01-29T23:14:18.286Z,8.70
2023-01-29T23:16:44.885Z,9.30
2023-01-29T23:19:12.367Z,7.20
2023-01-29T23:21:39.855Z,9.00
2023-01-29T23:24:07.259Z,6.20
2023-01-29T23:26:53.102Z,7.20
2023-01-29T23:29:19.804Z,6.80
2023-01-29T23:31:46.535Z,6.70
2023-01-29T23:34:13.915Z,8.20
2023-01-29T23:36:41.099Z,7.40
2023-01-29T23:39:07.817Z,6.70
2023-01-29T23:41:34.661Z,7.80
2023-01-29T23:44:02.443Z,6.60
2023-01-29T23:46:29.155Z,7.10
2023-01-29T23:48:55.789Z,6.50
2023-01-29T23:51:22.472Z,8.60
2023-01-29T23:53:49.104Z,7.70
2023-01-29T23:56:15.774Z,6.30
2023-01-29T23:58:43.240Z,6.20
